createdAt,value
2023-08-17T00:01:35.593Z,8.70
2023-08-17T00:04:02.286Z,8.93
2023-08-17T00:06:29.029Z,10.02
2023-08-17T00:08:55.755Z,13.50
2023-08-17T00:11:22.687Z,8.65
2023-08-17T00:13:49.490Z,11.02
2023-08-17T00:16:16.235Z,9.52
2023-08-17T00:18:43.032Z,12.02
2023-08-17T00:21:09.823Z,10.85
2023-08-17T00:23:36.713Z,11.32
2023-08-17T00:26:03.508Z,8.00
2023-08-17T00:28:30.118Z,9.88
2023-08-17T00:30:56.688Z,10.10
2023-08-17T00:33:23.357Z,11.10
2023-08-17T00:35:49.960Z,13.13
2023-08-17T00:38:16.674Z,12.98
2023-08-17T00:40:43.411Z,16.88
2023-08-17T00:43:10.404Z,14.82
2023-08-17T00:45:37.606Z,13.88
2023-08-17T00:48:08.809Z,15.50
2023-08-17T00:50:37.801Z,14.90
2023-08-17T00:53:05.165Z,15.63
2023-08-17T00:55:31.912Z,17.17
2023-08-17T00:57:59.273Z,17.30
2023-08-17T01:00:30.030Z,16.65
2023-08-17T01:02:57.120Z,22.80
2023-08-17T01:05:24.868Z,19.35
2023-08-17T01:07:51.538Z,16.27
2023-08-17T01:10:19.004Z,13.80
2023-08-17T01:12:56.002Z,18.60
2023-08-17T01:15:29.321Z,20.00
2023-08-17T01:18:01.943Z,17.60
2023-08-17T01:20:29.548Z,16.42
2023-08-17T01:22:59.166Z,19.15
2023-08-17T01:25:25.793Z,19.45
2023-08-17T01:27:56.303Z,16.67
2023-08-17T01:30:22.927Z,14.48
2023-08-17T01:32:59.217Z,18.95
2023-08-17T01:35:35.206Z,11.02
2023-08-17T01:38:08.050Z,12.82
2023-08-17T01:40:35.518Z,11.95
2023-08-17T01:43:03.569Z,12.90
2023-08-17T01:45:30.416Z,11.85
2023-08-17T01:47:57.242Z,14.73
2023-08-17T01:50:23.860Z,11.90
2023-08-17T01:52:52.292Z,13.77
2023-08-17T01:55:19.810Z,13.52
2023-08-17T01:57:46.373Z,19.87
2023-08-17T02:00:13.521Z,12.23
2023-08-17T02:02:40.262Z,15.98
2023-08-17T02:05:07.486Z,11.02
2023-08-17T02:07:34.148Z,12.63
2023-08-17T02:10:00.798Z,15.98
2023-08-17T02:12:27.417Z,13.27
2023-08-17T02:14:54.541Z,12.20
2023-08-17T02:17:22.638Z,15.45
2023-08-17T02:19:49.332Z,13.05
2023-08-17T02:22:16.302Z,11.63
2023-08-17T02:24:42.932Z,11.57
2023-08-17T02:27:10.521Z,10.25
2023-08-17T02:29:37.108Z,11.07
2023-08-17T02:32:03.821Z,14.40
2023-08-17T02:34:30.427Z,12.45
2023-08-17T02:36:57.035Z,10.80
2023-08-17T02:39:23.652Z,8.88
2023-08-17T02:41:50.646Z,11.90
2023-08-17T02:44:17.277Z,10.65
2023-08-17T02:46:43.887Z,8.60
2023-08-17T02:49:10.557Z,12.85
2023-08-17T02:51:37.128Z,13.52
2023-08-17T02:54:03.823Z,11.35
2023-08-17T02:56:30.414Z,11.35
2023-08-17T02:58:57.006Z,11.38
2023-08-17T03:01:23.599Z,12.65
2023-08-17T03:03:50.188Z,10.25
2023-08-17T03:06:16.745Z,10.88
2023-08-17T03:08:43.370Z,12.40
2023-08-17T05:02:32.139Z,13.88
2023-08-17T05:04:58.788Z,13.70
2023-08-17T05:07:25.731Z,12.75
2023-08-17T05:09:52.580Z,12.95
2023-08-17T05:12:19.147Z,15.63
2023-08-17T05:14:45.715Z,9.95
2023-08-17T05:17:12.394Z,11.13
2023-08-17T05:19:40.682Z,17.05
2023-08-17T05:22:11.808Z,13.43
2023-08-17T05:24:38.868Z,12.10
2023-08-17T05:27:06.091Z,10.68
2023-08-17T05:29:35.755Z,12.80
2023-08-17T05:32:02.321Z,11.43
2023-08-17T05:34:28.945Z,9.93
2023-08-17T05:36:55.574Z,9.13
2023-08-17T05:39:22.165Z,11.88
2023-08-17T05:41:48.817Z,10.15
2023-08-17T05:44:16.295Z,13.40
2023-08-17T05:46:42.990Z,12.43
2023-08-17T05:49:09.697Z,13.73
2023-08-17T05:51:36.315Z,9.85
2023-08-17T05:54:03.028Z,11.60
2023-08-17T05:56:29.668Z,11.00
2023-08-17T05:58:56.301Z,10.95
2023-08-17T06:01:23.254Z,11.68
2023-08-17T06:03:50.896Z,10.13
2023-08-17T06:06:17.589Z,10.32
2023-08-17T06:08:44.196Z,10.77
2023-08-17T06:11:10.786Z,12.35
2023-08-17T06:13:37.681Z,10.88
2023-08-17T06:16:04.449Z,10.27
2023-08-17T06:18:31.058Z,11.95
2023-08-17T06:20:57.667Z,10.98
2023-08-17T06:23:25.106Z,10.68
2023-08-17T06:25:51.708Z,10.60
2023-08-17T06:28:18.364Z,13.27
2023-08-17T06:30:45.057Z,15.80
2023-08-17T06:33:11.777Z,16.80
2023-08-17T06:35:38.389Z,15.87
2023-08-17T06:38:04.962Z,19.05
2023-08-17T06:40:31.512Z,12.10
2023-08-17T06:42:58.056Z,12.60
2023-08-17T06:45:24.683Z,12.45
2023-08-17T06:47:51.498Z,14.00
2023-08-17T06:50:18.225Z,15.60
2023-08-17T06:52:44.797Z,13.43
2023-08-17T06:55:12.557Z,18.13
2023-08-17T06:57:39.244Z,14.38
2023-08-17T07:00:06.801Z,12.43
2023-08-17T07:02:50.660Z,11.50
2023-08-17T07:05:22.052Z,13.65
2023-08-17T07:07:49.243Z,15.27
2023-08-17T07:12:42.485Z,12.65
2023-08-17T07:15:10.701Z,14.07
2023-08-17T07:17:40.762Z,14.88
2023-08-17T07:20:16.897Z,11.98
2023-08-17T07:22:48.028Z,16.50
2023-08-17T07:25:16.535Z,13.27
2023-08-17T07:27:44.362Z,12.52
2023-08-17T07:30:12.976Z,10.60
2023-08-17T07:32:39.605Z,18.08
2023-08-17T07:35:09.730Z,18.35
2023-08-17T07:37:37.085Z,12.02
2023-08-17T07:40:06.825Z,11.93
2023-08-17T07:42:33.535Z,12.80
2023-08-17T07:45:00.411Z,9.93
2023-08-17T07:47:27.382Z,8.70
2023-08-17T07:49:54.380Z,12.55
2023-08-17T07:52:21.128Z,11.18
2023-08-17T07:54:47.768Z,9.43
2023-08-17T07:57:14.494Z,9.40
2023-08-17T07:59:41.320Z,9.93
2023-08-17T08:02:11.107Z,10.45
2023-08-17T08:04:37.715Z,9.38
2023-08-17T08:07:35.217Z,9.77
2023-08-17T08:10:03.382Z,13.05
2023-08-17T08:12:30.096Z,10.57
2023-08-17T08:14:56.757Z,9.82
2023-08-17T08:17:23.593Z,8.65
2023-08-17T08:19:54.826Z,6.88
2023-08-17T08:22:21.405Z,8.85
2023-08-17T08:24:48.000Z,8.97
2023-08-17T08:27:14.570Z,8.73
2023-08-17T08:29:43.016Z,6.93
2023-08-17T08:32:09.665Z,8.05
2023-08-17T08:34:36.286Z,9.75
2023-08-17T08:37:02.924Z,11.40
2023-08-17T08:39:29.591Z,16.25
2023-08-17T08:41:56.878Z,7.82
2023-08-17T08:44:24.070Z,7.22
2023-08-17T08:46:50.842Z,6.78
2023-08-17T08:49:23.682Z,7.32
2023-08-17T08:51:52.619Z,6.72
2023-08-17T08:54:26.297Z,7.90
2023-08-17T08:56:58.566Z,6.97
2023-08-17T08:59:28.172Z,6.93
2023-08-17T09:01:57.502Z,7.53
2023-08-17T09:04:25.222Z,7.35
2023-08-17T09:06:52.460Z,6.90
2023-08-17T09:09:19.697Z,6.75
2023-08-17T09:11:46.383Z,6.97
2023-08-17T09:14:12.998Z,8.50
2023-08-17T09:16:40.110Z,9.63
2023-08-17T09:19:07.482Z,7.20
2023-08-17T09:21:34.290Z,7.68
2023-08-17T09:24:02.192Z,7.07
2023-08-17T09:26:35.624Z,6.75
2023-08-17T09:29:17.016Z,8.63
2023-08-17T09:31:44.217Z,9.20
2023-08-17T09:34:12.464Z,7.97
2023-08-17T09:36:40.861Z,8.30
2023-08-17T09:39:07.471Z,8.88
2023-08-17T09:41:43.788Z,8.00
2023-08-17T09:44:10.732Z,8.38
2023-08-17T09:46:37.492Z,9.75
2023-08-17T09:49:08.070Z,7.80
2023-08-17T09:51:35.004Z,7.40
2023-08-17T09:54:02.204Z,7.13
2023-08-17T09:56:30.694Z,8.32
2023-08-17T10:01:25.191Z,8.40
2023-08-17T10:03:54.325Z,9.18
2023-08-17T10:06:27.467Z,8.73
2023-08-17T10:08:57.871Z,9.38
2023-08-17T10:11:27.330Z,8.15
2023-08-17T10:14:12.118Z,6.57
2023-08-17T10:16:55.161Z,7.10
2023-08-17T10:19:44.321Z,8.27
2023-08-17T10:22:19.824Z,7.82
2023-08-17T10:24:48.471Z,8.27
2023-08-17T10:27:15.616Z,8.85
2023-08-17T10:29:44.485Z,7.53
2023-08-17T10:32:16.733Z,7.65
2023-08-17T10:34:44.702Z,7.68
2023-08-17T10:37:12.778Z,9.68
2023-08-17T10:39:46.665Z,9.05
2023-08-17T10:42:20.881Z,7.65
2023-08-17T10:44:49.541Z,7.53
2023-08-17T10:47:36.552Z,7.45
2023-08-17T10:50:23.926Z,7.85
2023-08-17T10:52:51.912Z,7.57
2023-08-17T10:55:21.029Z,11.88
2023-08-17T10:57:47.624Z,8.73
2023-08-17T11:00:28.570Z,8.80
2023-08-17T11:03:01.953Z,6.93
2023-08-17T11:05:54.961Z,8.63
2023-08-17T11:08:30.288Z,10.10
2023-08-17T11:11:04.884Z,13.20
2023-08-17T11:13:34.183Z,7.07
2023-08-17T11:16:04.083Z,8.63
2023-08-17T11:18:35.142Z,7.72
2023-08-17T11:21:04.855Z,9.85
2023-08-17T11:23:33.006Z,8.98
2023-08-17T11:26:00.908Z,10.18
2023-08-17T11:28:28.067Z,9.70
2023-08-17T11:31:02.684Z,8.63
2023-08-17T11:33:31.649Z,9.73
2023-08-17T11:38:36.034Z,8.93
2023-08-17T11:41:07.580Z,8.48
2023-08-17T11:43:34.463Z,9.38
2023-08-17T11:46:02.809Z,12.97
2023-08-17T11:48:36.378Z,9.65
2023-08-17T11:51:04.998Z,8.80
2023-08-17T11:53:40.884Z,9.18
2023-08-17T11:56:10.645Z,10.48
2023-08-17T11:58:45.392Z,7.65
2023-08-17T12:01:14.193Z,7.90
2023-08-17T12:03:44.411Z,7.13
2023-08-17T12:06:14.747Z,7.97
2023-08-17T12:08:48.933Z,8.40
2023-08-17T12:11:19.432Z,8.73
2023-08-17T12:13:53.929Z,8.10
2023-08-17T12:16:21.922Z,9.00
2023-08-17T12:18:53.395Z,10.23
2023-08-17T12:21:26.040Z,9.05
2023-08-17T12:23:53.062Z,9.05
2023-08-17T12:26:21.037Z,7.97
2023-08-17T12:28:47.619Z,15.25
2023-08-17T12:31:14.301Z,8.25
2023-08-17T12:33:40.906Z,7.80
2023-08-17T12:36:08.022Z,8.13
2023-08-17T12:38:34.798Z,8.65
2023-08-17T12:41:06.823Z,9.32
2023-08-17T12:43:33.971Z,9.38
2023-08-17T12:46:00.605Z,10.10
2023-08-17T12:48:27.171Z,8.13
2023-08-17T12:50:53.755Z,8.20
2023-08-17T12:53:20.339Z,7.75
2023-08-17T12:55:47.221Z,8.23
2023-08-17T12:58:13.802Z,8.63
2023-08-17T13:00:40.469Z,13.45
2023-08-17T13:03:07.873Z,8.48
2023-08-17T13:05:35.957Z,8.20
2023-08-17T13:08:02.586Z,8.90
2023-08-17T13:10:30.235Z,8.50
2023-08-17T13:15:27.478Z,7.15
2023-08-17T13:17:54.118Z,12.43
2023-08-17T13:20:20.701Z,9.45
2023-08-17T13:22:48.029Z,8.35
2023-08-17T13:25:14.605Z,9.40
2023-08-17T13:27:41.310Z,8.85
2023-08-17T13:30:08.661Z,8.55
2023-08-17T13:32:35.366Z,8.32
2023-08-17T13:35:05.363Z,10.77
2023-08-17T13:37:32.282Z,9.07
2023-08-17T13:39:59.709Z,8.07
2023-08-17T13:42:26.621Z,10.23
2023-08-17T13:44:53.662Z,8.38
2023-08-17T13:47:20.371Z,8.80
2023-08-17T13:49:46.999Z,7.63
2023-08-17T13:52:13.690Z,9.27
2023-08-17T13:54:40.568Z,12.10
2023-08-17T13:57:07.342Z,8.77
2023-08-17T13:59:35.074Z,7.83
2023-08-17T14:04:28.220Z,8.93
2023-08-17T14:06:56.447Z,11.15
2023-08-17T14:09:23.276Z,8.50
2023-08-17T14:11:49.960Z,12.77
2023-08-17T14:14:16.629Z,9.40
2023-08-17T14:16:43.898Z,7.65
2023-08-17T14:19:10.699Z,7.90
2023-08-17T14:21:37.245Z,8.03
2023-08-17T14:24:04.170Z,9.27
2023-08-17T14:26:32.065Z,8.30
2023-08-17T14:28:59.932Z,10.45
2023-08-17T14:31:26.582Z,9.55
2023-08-17T14:33:53.366Z,9.25
2023-08-17T14:36:20.972Z,9.93
2023-08-17T14:38:48.378Z,8.13
2023-08-17T14:41:15.054Z,8.23
2023-08-17T14:43:41.849Z,9.45
2023-08-17T14:46:14.321Z,8.87
2023-08-17T14:48:41.574Z,9.40
2023-08-17T14:51:08.201Z,8.88
2023-08-17T14:53:39.359Z,8.23
2023-08-17T14:56:06.312Z,8.07
2023-08-17T14:58:32.982Z,8.63
2023-08-17T15:00:59.859Z,10.85
2023-08-17T15:03:26.681Z,8.67
2023-08-17T15:05:53.472Z,11.17
2023-08-17T15:08:20.386Z,8.85
2023-08-17T15:10:49.203Z,10.77
2023-08-17T15:13:16.413Z,8.02
2023-08-17T15:15:44.241Z,15.93
2023-08-17T15:18:11.561Z,7.93
2023-08-17T15:20:38.391Z,9.55
2023-08-17T15:23:05.130Z,12.23
2023-08-17T15:25:31.806Z,8.10
2023-08-17T15:27:58.390Z,11.52
2023-08-17T15:30:25.003Z,10.30
2023-08-17T15:32:51.634Z,8.82
2023-08-17T15:35:18.251Z,9.23
2023-08-17T15:37:44.821Z,14.93
2023-08-17T15:40:12.765Z,11.20
2023-08-17T15:42:39.432Z,9.07
2023-08-17T15:45:06.467Z,8.20
2023-08-17T15:47:33.823Z,10.45
2023-08-17T15:50:01.156Z,11.25
2023-08-17T15:52:27.747Z,9.98
2023-08-17T15:54:54.374Z,8.13
2023-08-17T15:57:20.992Z,15.18
2023-08-17T15:59:51.171Z,8.10
2023-08-17T16:02:18.598Z,11.13
2023-08-17T16:04:45.352Z,9.25
2023-08-17T16:07:11.998Z,10.48
2023-08-17T16:09:39.460Z,10.10
2023-08-17T16:12:06.443Z,10.80
2023-08-17T16:14:34.245Z,8.75
2023-08-17T16:17:03.696Z,9.25
2023-08-17T16:19:30.320Z,9.02
2023-08-17T16:21:56.969Z,10.52
2023-08-17T16:26:53.180Z,7.95
2023-08-17T16:29:19.831Z,10.07
2023-08-17T16:32:09.135Z,14.23
2023-08-17T16:34:36.933Z,9.02
2023-08-17T16:37:03.750Z,10.23
2023-08-17T16:39:30.352Z,9.80
2023-08-17T16:41:59.803Z,8.95
2023-08-17T16:44:28.238Z,9.45
2023-08-17T16:46:55.511Z,10.40
2023-08-17T16:49:22.148Z,7.85
2023-08-17T16:51:48.714Z,9.50
2023-08-17T16:54:15.337Z,10.63
2023-08-17T16:56:44.572Z,12.60
2023-08-17T16:59:12.180Z,9.25
2023-08-17T17:01:39.500Z,7.68
2023-08-17T17:04:07.049Z,10.48
2023-08-17T17:06:33.701Z,12.65
2023-08-17T17:09:00.513Z,11.73
2023-08-17T17:11:27.814Z,9.40
2023-08-17T17:13:56.166Z,9.95
2023-08-17T17:16:28.003Z,11.02
2023-08-17T17:18:54.670Z,11.90
2023-08-17T17:21:21.448Z,13.38
2023-08-17T17:23:48.065Z,11.30
2023-08-17T17:26:23.877Z,12.32
2023-08-17T17:28:51.022Z,10.55
2023-08-17T17:31:17.834Z,10.30
2023-08-17T17:33:44.822Z,9.82
2023-08-17T17:36:11.551Z,9.73
2023-08-17T17:38:48.455Z,8.70
2023-08-17T17:41:16.727Z,10.17
2023-08-17T17:43:43.772Z,12.27
2023-08-17T17:46:13.407Z,14.93
2023-08-17T17:48:40.272Z,11.73
2023-08-17T17:51:07.171Z,13.02
2023-08-17T17:53:34.242Z,13.85
2023-08-17T17:56:04.391Z,8.53
2023-08-17T17:58:33.377Z,12.48
2023-08-17T18:01:00.129Z,8.75
2023-08-17T18:03:28.959Z,11.23
2023-08-17T18:05:55.957Z,9.57
2023-08-17T18:08:22.684Z,9.02
2023-08-17T18:10:49.653Z,9.93
2023-08-17T18:13:16.302Z,11.02
2023-08-17T18:15:43.598Z,9.70
2023-08-17T18:18:10.471Z,17.05
2023-08-17T18:20:37.632Z,10.25
2023-08-17T18:23:04.405Z,9.47
2023-08-17T18:25:31.058Z,10.48
2023-08-17T18:27:57.693Z,9.07
2023-08-17T18:30:24.332Z,9.65
2023-08-17T18:32:51.080Z,10.90
2023-08-17T18:35:18.914Z,11.30
2023-08-17T18:37:46.956Z,10.63
2023-08-17T18:40:13.691Z,12.52
2023-08-17T18:42:40.566Z,10.43
2023-08-17T18:45:08.117Z,10.73
2023-08-17T18:47:34.903Z,13.77
2023-08-17T18:50:02.023Z,10.85
2023-08-17T18:52:32.842Z,8.90
2023-08-17T18:55:04.298Z,9.93
2023-08-17T18:57:33.753Z,10.20
2023-08-17T19:00:02.594Z,10.80
2023-08-17T19:02:29.362Z,12.38
2023-08-17T19:04:57.420Z,11.25
2023-08-17T19:07:29.361Z,10.15
2023-08-17T19:09:56.288Z,10.95
2023-08-17T19:12:22.977Z,10.93
2023-08-17T19:14:49.573Z,14.25
2023-08-17T19:17:16.555Z,12.10
2023-08-17T19:19:43.346Z,11.88
2023-08-17T19:22:10.504Z,11.65
2023-08-17T19:24:38.566Z,13.30
2023-08-17T19:29:31.723Z,11.25
2023-08-17T19:31:58.320Z,10.55
2023-08-17T19:34:24.973Z,10.82
2023-08-17T19:36:51.618Z,12.18
2023-08-17T19:39:19.843Z,12.35
2023-08-17T19:41:48.540Z,14.77
2023-08-17T19:44:15.639Z,14.23
2023-08-17T19:46:42.341Z,15.90
2023-08-17T19:49:09.336Z,13.27
2023-08-17T19:51:36.010Z,13.65
2023-08-17T19:54:02.619Z,14.25
2023-08-17T19:56:29.317Z,12.98
2023-08-17T19:58:55.902Z,12.63
2023-08-17T20:01:23.953Z,15.82
2023-08-17T20:08:46.176Z,13.90
2023-08-17T20:11:13.477Z,13.57
2023-08-17T20:13:40.099Z,11.20
2023-08-17T20:16:06.811Z,13.00
2023-08-17T20:18:33.766Z,14.40
2023-08-17T20:21:03.175Z,15.85
2023-08-17T20:23:30.360Z,11.70
2023-08-17T20:25:57.720Z,15.70
2023-08-17T20:28:25.190Z,11.00
2023-08-17T20:30:57.520Z,13.33
2023-08-17T20:33:24.977Z,12.60
2023-08-17T20:35:53.727Z,14.35
2023-08-17T20:38:21.855Z,13.00
2023-08-17T20:43:15.476Z,13.18
2023-08-17T20:45:43.511Z,20.20
2023-08-17T20:48:10.905Z,15.30
2023-08-17T20:50:39.458Z,12.77
2023-08-17T20:53:07.128Z,13.63
2023-08-17T20:55:42.624Z,11.85
2023-08-17T20:58:10.124Z,14.13
2023-08-17T21:00:36.943Z,15.27
2023-08-17T21:03:06.830Z,12.18
2023-08-17T21:05:33.930Z,12.27
2023-08-17T21:08:01.202Z,13.30
2023-08-17T21:10:28.545Z,11.73
2023-08-17T21:12:55.207Z,13.35
2023-08-17T21:15:21.850Z,12.88
2023-08-17T21:17:48.532Z,13.75
2023-08-17T21:20:15.457Z,15.23
2023-08-17T21:22:51.983Z,12.27
2023-08-17T21:25:19.504Z,11.70
2023-08-17T21:27:46.280Z,16.17
2023-08-17T21:30:13.592Z,13.10
2023-08-17T21:32:40.964Z,12.47
2023-08-17T21:35:07.891Z,12.27
2023-08-17T21:37:34.592Z,14.30
2023-08-17T21:40:02.314Z,13.93
2023-08-17T21:42:28.929Z,11.23
2023-08-17T21:44:56.414Z,11.77
2023-08-17T21:47:26.136Z,12.35
2023-08-17T21:49:53.078Z,13.40
2023-08-17T21:52:20.867Z,12.85
2023-08-17T21:54:50.725Z,15.70
2023-08-17T21:57:18.219Z,11.38
2023-08-17T21:59:45.249Z,14.98
2023-08-17T22:02:12.022Z,12.80
2023-08-17T22:04:38.636Z,12.02
2023-08-17T22:07:05.265Z,13.18
2023-08-17T22:09:34.417Z,12.57
2023-08-17T22:12:01.398Z,12.35
2023-08-17T22:14:30.287Z,13.23
2023-08-17T22:16:57.644Z,13.95
2023-08-17T22:19:24.494Z,13.73
2023-08-17T22:21:51.222Z,14.13
2023-08-17T22:24:17.855Z,15.95
2023-08-17T22:26:44.623Z,12.60
2023-08-17T22:29:12.498Z,11.73
2023-08-17T22:31:43.346Z,13.38
2023-08-17T22:34:13.995Z,13.35
2023-08-17T22:36:40.682Z,14.48
2023-08-17T22:39:07.271Z,13.38
2023-08-17T22:41:34.117Z,13.38
2023-08-17T22:44:00.794Z,12.80
2023-08-17T22:46:27.604Z,14.20
2023-08-17T22:48:54.272Z,12.73
2023-08-17T22:51:20.932Z,14.52
2023-08-17T22:53:47.587Z,13.27
2023-08-17T22:56:14.230Z,16.23
2023-08-17T22:58:41.062Z,14.80
2023-08-17T23:01:08.772Z,12.27
2023-08-17T23:03:35.510Z,15.40
2023-08-17T23:06:02.828Z,10.57
2023-08-17T23:08:30.237Z,11.50
2023-08-17T23:11:00.915Z,10.55
2023-08-17T23:13:27.935Z,10.65
2023-08-17T23:15:55.565Z,13.02
2023-08-17T23:18:22.258Z,12.77
2023-08-17T23:20:48.989Z,19.85
2023-08-17T23:23:15.953Z,18.33
2023-08-17T23:25:43.630Z,22.35
2023-08-17T23:28:10.896Z,15.07
2023-08-17T23:30:40.206Z,15.93
2023-08-17T23:33:07.522Z,17.23
2023-08-17T23:35:35.214Z,15.23
2023-08-17T23:38:02.142Z,18.50
2023-08-17T23:40:28.850Z,14.43
2023-08-17T23:42:55.462Z,14.25
2023-08-17T23:45:22.390Z,15.00
2023-08-17T23:47:49.024Z,14.75
2023-08-17T23:50:15.767Z,16.17
2023-08-17T23:52:43.236Z,14.93
2023-08-17T23:55:09.935Z,13.83
2023-08-17T23:57:36.574Z,13.98
